Etusivu
METAR-TAF:

METAR-TAF

Lentoasemat :

Honningsvåg, Norja

Leveyspiiri: 71-01N, Pituuspiiri: 025-59E, korkeus merenpinnasta: 1 m

Tämänhetkinen sää

Tämä raportti tehtiin 20 minuuttia sitten, kello 20.20 UTC
Tuuli 13 kn etelästä/lounaasta
Lämpötila 3°C
Kosteus 75%
Ilmanpaine 1004 hPa
Näkyvyys 10 km tai enemmän
Hajonneita pilviä 3700 ft:n korkeudessa
heikkoja vesikuuroja

METAR: ENHV 032020Z 21013KT 9999 -SHRA BKN037 03/M01 Q1004

Aika: 21:40 (20:40 UTC)


TAF: puuttuu

Säähavainnot ja -ennusteet yli 4000 lentoasemalta (METAR- ja TAF-raportit).

Käytössä olevat sääasemat on merkitty karttaan keltaisilla ja punaisilla pisteillä.

Aseta hiiri pisteen päälle nähdäksesi sääaseman nimen.

Klikkaa sitten nähdäksesi säähavainnot ja -ennusteet.

Kartan vaihtaminen: klikkaa mustalla rastilla varustettuja vihreitä pisteitä, niin voit zoomata sisään; viivalla varustettua vihreää pistettä, niin voit zoomata ulos tai vihreitä nuolia, niin pääset viereisille kartoille.


METAR-TAF: